createdAt,value
2019-05-05T00:00:50.451Z,4.60
2019-05-05T00:03:38.176Z,2.80
2019-05-05T00:06:08.557Z,3.07
2019-05-05T00:08:38.032Z,2.90
2019-05-05T00:11:32.660Z,4.10
2019-05-05T00:14:24.579Z,4.93
2019-05-05T00:17:06.966Z,5.40
2019-05-05T00:19:36.489Z,3.73
2019-05-05T00:22:05.999Z,3.40
2019-05-05T00:24:35.470Z,2.80
2019-05-05T00:27:05.068Z,3.70
2019-05-05T00:29:34.759Z,3.83
2019-05-05T00:32:05.030Z,3.30
2019-05-05T00:34:35.086Z,3.27
2019-05-05T00:37:04.828Z,3.13
2019-05-05T00:39:34.548Z,2.13
2019-05-05T00:42:05.500Z,2.97
2019-05-05T00:44:35.297Z,3.17
2019-05-05T00:47:36.101Z,2.83
2019-05-05T00:50:07.786Z,2.40
2019-05-05T00:52:37.251Z,2.63
2019-05-05T00:55:07.528Z,2.80
2019-05-05T00:57:37.009Z,2.87
2019-05-05T01:00:15.205Z,3.73
2019-05-05T01:02:49.865Z,2.90
2019-05-05T01:05:45.073Z,3.67
2019-05-05T01:08:18.328Z,2.80
2019-05-05T01:10:47.802Z,2.63
2019-05-05T01:13:17.342Z,3.50
2019-05-05T01:15:46.827Z,3.67
2019-05-05T01:18:16.331Z,3.40
2019-05-05T01:20:45.803Z,3.37
2019-05-05T01:23:15.377Z,2.73
2019-05-05T01:25:46.214Z,3.83
2019-05-05T01:28:16.026Z,2.47
2019-05-05T01:30:48.022Z,3.23
2019-05-05T01:33:39.432Z,2.97
2019-05-05T01:36:08.939Z,5.03
2019-05-05T01:38:44.663Z,2.43
2019-05-05T01:41:25.490Z,2.63
2019-05-05T01:43:54.977Z,2.80
2019-05-05T01:46:24.652Z,3.70
2019-05-05T01:48:54.946Z,5.57
2019-05-05T01:51:24.905Z,3.83
2019-05-05T01:53:54.660Z,5.90
2019-05-05T01:56:24.802Z,4.13
2019-05-05T01:58:54.913Z,3.40
2019-05-05T02:01:24.765Z,5.03
2019-05-05T02:03:54.984Z,8.80
2019-05-05T02:06:24.990Z,6.20
2019-05-05T02:08:54.974Z,6.77
2019-05-05T02:11:24.780Z,4.93
2019-05-05T02:13:54.681Z,3.77
2019-05-05T02:16:25.311Z,3.20
2019-05-05T02:18:55.273Z,4.00
2019-05-05T02:21:24.896Z,5.30
2019-05-05T02:23:54.837Z,5.30
2019-05-05T02:26:24.705Z,4.63
2019-05-05T02:29:04.892Z,4.33
2019-05-05T02:31:55.098Z,5.87
2019-05-05T02:34:25.713Z,4.10
2019-05-05T02:36:56.520Z,3.17
2019-05-05T02:39:26.358Z,7.10
2019-05-05T02:41:57.117Z,8.70
2019-05-05T02:44:29.116Z,4.77
2019-05-05T02:47:08.081Z,4.83
2019-05-05T02:49:37.868Z,4.37
2019-05-05T02:52:07.950Z,3.77
2019-05-05T02:54:38.944Z,6.30
2019-05-05T02:57:10.747Z,7.00
2019-05-05T02:59:49.590Z,4.53
2019-05-05T03:02:23.647Z,7.60
2019-05-05T03:04:54.044Z,4.97
2019-05-05T03:07:26.412Z,4.20
2019-05-05T03:09:57.353Z,7.83
2019-05-05T03:12:30.157Z,10.03
2019-05-05T03:15:04.008Z,5.70
2019-05-05T03:17:34.158Z,5.13
2019-05-05T03:20:04.249Z,5.37
2019-05-05T03:22:34.172Z,6.87
2019-05-05T03:25:04.749Z,6.07
2019-05-05T03:27:34.242Z,9.07
2019-05-05T03:30:05.184Z,4.60
2019-05-05T03:32:36.092Z,8.43
2019-05-05T03:35:06.000Z,7.53
2019-05-05T03:37:36.437Z,6.90
2019-05-05T03:40:14.784Z,7.00
2019-05-05T03:43:06.463Z,5.07
2019-05-05T03:45:46.312Z,7.07
2019-05-05T03:48:15.810Z,7.23
2019-05-05T03:50:45.397Z,5.37
2019-05-05T03:53:15.184Z,6.67
2019-05-05T03:55:44.673Z,8.27
2019-05-05T03:58:14.761Z,9.47
2019-05-05T04:02:08.035Z,7.80
2019-05-05T04:04:44.122Z,7.30
2019-05-05T04:07:14.030Z,7.77
2019-05-05T04:09:44.447Z,6.87
2019-05-05T04:12:14.444Z,9.80
2019-05-05T04:14:45.978Z,5.63
2019-05-05T04:17:33.757Z,5.87
2019-05-05T04:20:24.091Z,9.57
2019-05-05T04:22:54.286Z,6.47
2019-05-05T04:25:24.480Z,11.00
2019-05-05T04:27:53.990Z,5.93
2019-05-05T04:30:23.824Z,9.10
2019-05-05T04:32:54.539Z,8.73
2019-05-05T04:35:24.740Z,5.50
2019-05-05T04:37:54.517Z,10.00
2019-05-05T04:40:24.201Z,6.60
2019-05-05T04:42:54.688Z,11.13
2019-05-05T04:45:24.373Z,7.53
2019-05-05T04:47:58.271Z,9.70
2019-05-05T04:50:45.328Z,9.13
2019-05-05T04:53:19.623Z,7.53
2019-05-05T04:55:49.132Z,11.50
2019-05-05T04:58:18.605Z,6.93
2019-05-05T05:00:48.089Z,9.33
2019-05-05T05:03:25.409Z,12.67
2019-05-05T05:06:01.122Z,7.17
2019-05-05T05:08:30.639Z,6.23
2019-05-05T05:11:00.199Z,7.17
2019-05-05T05:13:29.692Z,8.00
2019-05-05T05:15:59.200Z,6.87
2019-05-05T05:18:28.657Z,8.40
2019-05-05T05:20:58.139Z,8.63
2019-05-05T05:23:29.683Z,10.40
2019-05-05T05:25:58.850Z,9.27
2019-05-05T05:28:28.355Z,6.93
2019-05-05T05:30:57.848Z,11.00
2019-05-05T05:33:27.363Z,9.80
2019-05-05T05:35:56.845Z,8.27
2019-05-05T05:38:26.364Z,9.33
2019-05-05T05:41:09.876Z,10.43
2019-05-05T05:43:58.317Z,10.33
2019-05-05T05:46:45.425Z,9.13
2019-05-05T05:49:36.592Z,9.57
2019-05-05T05:52:15.042Z,7.93
2019-05-05T05:54:37.245Z,9.27
2019-05-05T05:57:06.752Z,9.47
2019-05-05T05:59:36.246Z,13.63
2019-05-05T06:02:11.835Z,10.93
2019-05-05T06:04:36.876Z,10.07
2019-05-05T06:07:06.348Z,5.87
2019-05-05T06:09:35.840Z,5.20
2019-05-05T06:12:05.362Z,11.27
2019-05-05T06:14:34.864Z,6.57
2019-05-05T06:17:04.389Z,10.23
2019-05-05T06:19:33.974Z,7.00
2019-05-05T06:22:03.647Z,7.60
2019-05-05T06:24:34.548Z,8.90
2019-05-05T06:27:04.201Z,8.67
2019-05-05T06:29:34.516Z,8.70
2019-05-05T06:32:04.399Z,8.47
2019-05-05T06:34:33.992Z,8.27
2019-05-05T06:37:04.234Z,8.47
2019-05-05T06:39:34.127Z,7.50
2019-05-05T06:42:21.169Z,8.00
2019-05-05T06:45:01.029Z,9.03
2019-05-05T06:47:34.526Z,12.50
2019-05-05T06:50:04.305Z,6.67
2019-05-05T06:52:43.803Z,6.90
2019-05-05T06:55:05.052Z,12.13
2019-05-05T06:57:34.529Z,5.77
2019-05-05T07:00:04.440Z,8.03
2019-05-05T07:02:34.310Z,5.63
2019-05-05T07:05:04.203Z,12.60
2019-05-05T07:07:34.249Z,8.67
2019-05-05T07:10:04.433Z,8.40
2019-05-05T07:12:34.727Z,7.80
2019-05-05T07:15:05.085Z,5.17
2019-05-05T07:17:34.605Z,9.00
2019-05-05T07:20:04.555Z,7.70
2019-05-05T07:22:34.647Z,10.63
2019-05-05T07:25:04.882Z,9.03
2019-05-05T07:27:34.392Z,10.53
2019-05-05T07:30:04.846Z,9.60
2019-05-05T07:32:34.637Z,7.13
2019-05-05T07:35:35.313Z,5.93
2019-05-05T07:38:04.761Z,7.47
2019-05-05T07:40:34.652Z,7.97
2019-05-05T07:43:04.615Z,10.53
2019-05-05T07:45:34.450Z,9.73
2019-05-05T07:48:04.853Z,8.53
2019-05-05T07:50:35.903Z,9.27
2019-05-05T07:53:14.444Z,13.33
2019-05-05T07:55:36.745Z,8.57
2019-05-05T07:58:06.212Z,8.20
2019-05-05T08:00:35.715Z,9.13
2019-05-05T08:03:05.313Z,13.80
2019-05-05T08:05:34.811Z,9.90
2019-05-05T08:08:04.698Z,8.73
2019-05-05T08:10:34.512Z,10.67
2019-05-05T08:13:04.666Z,12.70
2019-05-05T08:15:34.542Z,10.30
2019-05-05T08:18:24.286Z,11.37
2019-05-05T08:20:57.018Z,13.57
2019-05-05T08:23:45.405Z,10.23
2019-05-05T08:26:33.655Z,8.47
2019-05-05T08:29:20.842Z,14.83
2019-05-05T08:31:58.199Z,10.87
2019-05-05T08:34:27.699Z,11.83
2019-05-05T08:36:59.807Z,13.33
2019-05-05T08:39:28.355Z,12.83
2019-05-05T08:41:57.935Z,14.73
2019-05-05T08:44:27.432Z,12.43
2019-05-05T08:46:56.902Z,14.63
2019-05-05T08:49:26.370Z,10.90
2019-05-05T08:51:55.845Z,17.93
2019-05-05T08:54:25.336Z,16.47
2019-05-05T08:56:55.093Z,13.40
2019-05-05T08:59:24.819Z,14.47
2019-05-05T09:01:54.325Z,16.63
2019-05-05T09:04:24.643Z,12.80
2019-05-05T09:06:54.571Z,15.30
2019-05-05T09:09:24.292Z,14.10
2019-05-05T09:11:54.289Z,10.60
2019-05-05T09:14:24.100Z,11.67
2019-05-05T09:16:53.871Z,13.93
2019-05-05T09:19:23.991Z,12.80
2019-05-05T09:21:54.255Z,12.13
2019-05-05T09:24:45.652Z,13.07
2019-05-05T09:27:29.222Z,12.50
2019-05-05T09:29:58.730Z,15.50
2019-05-05T09:32:28.295Z,8.23
2019-05-05T09:34:57.799Z,12.90
2019-05-05T09:37:27.746Z,14.23
2019-05-05T09:39:57.226Z,12.90
2019-05-05T09:42:26.725Z,11.47
2019-05-05T09:44:56.235Z,13.47
2019-05-05T09:47:25.693Z,11.67
2019-05-05T09:49:55.184Z,12.27
2019-05-05T09:52:24.656Z,15.30
2019-05-05T09:54:54.553Z,14.40
2019-05-05T09:57:24.286Z,17.60
2019-05-05T09:59:56.552Z,22.80
2019-05-05T10:02:26.021Z,16.27
2019-05-05T10:04:55.514Z,16.17
2019-05-05T10:07:25.011Z,17.13
2019-05-05T10:09:54.526Z,18.53
2019-05-05T10:12:24.051Z,11.33
2019-05-05T10:14:54.178Z,14.70
2019-05-05T10:17:24.373Z,18.93
2019-05-05T10:19:54.665Z,13.90
2019-05-05T10:22:24.313Z,17.10
2019-05-05T10:25:12.748Z,14.70
2019-05-05T10:27:46.992Z,13.87
2019-05-05T10:30:14.294Z,17.47
2019-05-05T10:32:43.958Z,16.60
2019-05-05T10:35:14.322Z,13.43
2019-05-05T10:37:44.104Z,15.43
2019-05-05T10:40:15.605Z,12.40
2019-05-05T10:42:51.165Z,14.63
2019-05-05T10:45:24.236Z,15.87
2019-05-05T10:47:53.691Z,11.13
2019-05-05T10:50:24.745Z,9.80
2019-05-05T10:52:54.435Z,12.23
2019-05-05T10:55:24.102Z,11.57
2019-05-05T10:57:54.459Z,10.27
2019-05-05T11:00:47.181Z,13.97
2019-05-05T11:03:16.757Z,12.50
2019-05-05T11:05:46.415Z,14.70
2019-05-05T11:08:16.021Z,11.73
2019-05-05T11:10:45.670Z,10.83
2019-05-05T11:13:15.145Z,11.63
2019-05-05T11:15:44.779Z,10.57
2019-05-05T11:18:14.933Z,11.20
2019-05-05T11:20:44.947Z,9.10
2019-05-05T11:23:15.374Z,16.03
2019-05-05T11:25:45.094Z,12.23
2019-05-05T11:28:14.617Z,9.33
2019-05-05T11:30:45.605Z,12.00
2019-05-05T11:33:34.574Z,10.10
2019-05-05T11:36:14.202Z,10.70
2019-05-05T11:38:44.551Z,11.33
2019-05-05T11:41:14.551Z,9.67
2019-05-05T11:43:44.254Z,11.73
2019-05-05T11:46:14.225Z,9.60
2019-05-05T11:48:44.160Z,12.07
2019-05-05T11:51:15.111Z,8.47
2019-05-05T11:53:44.936Z,11.40
2019-05-05T11:56:14.650Z,13.27
2019-05-05T11:58:44.407Z,10.50
2019-05-05T12:01:14.315Z,9.93
2019-05-05T12:03:44.344Z,10.77
2019-05-05T12:06:14.838Z,9.47
2019-05-05T12:08:45.959Z,9.43
2019-05-05T12:11:16.022Z,6.17
2019-05-05T12:13:45.567Z,9.37
2019-05-05T12:16:30.054Z,6.50
2019-05-05T12:19:01.178Z,8.40
2019-05-05T12:21:30.649Z,9.20
2019-05-05T12:24:03.840Z,7.70
2019-05-05T12:26:49.965Z,8.10
2019-05-05T12:29:24.421Z,6.87
2019-05-05T12:31:54.063Z,7.07
2019-05-05T12:34:23.737Z,7.97
2019-05-05T12:36:53.949Z,12.03
2019-05-05T12:39:23.943Z,13.83
2019-05-05T12:41:54.315Z,8.67
2019-05-05T12:44:49.011Z,10.73
2019-05-05T12:47:40.646Z,14.93
2019-05-05T12:50:10.245Z,11.97
2019-05-05T12:52:39.735Z,11.00
2019-05-05T12:55:09.285Z,14.40
2019-05-05T12:57:38.788Z,9.77
2019-05-05T13:00:08.982Z,8.03
2019-05-05T13:02:38.458Z,8.90
2019-05-05T13:05:08.042Z,12.10
2019-05-05T13:07:37.557Z,11.50
2019-05-05T13:10:08.710Z,8.17
2019-05-05T13:12:38.217Z,11.67
2019-05-05T13:15:08.064Z,11.77
2019-05-05T13:17:37.608Z,10.37
2019-05-05T13:20:26.118Z,13.93
2019-05-05T13:23:10.952Z,11.40
2019-05-05T13:25:59.284Z,12.37
2019-05-05T13:28:27.807Z,10.63
2019-05-05T13:30:57.317Z,10.73
2019-05-05T13:33:26.792Z,25.00
2019-05-05T13:35:56.285Z,11.30
2019-05-05T13:38:25.769Z,7.97
2019-05-05T13:40:55.254Z,9.43
2019-05-05T13:43:24.732Z,9.07
2019-05-05T13:46:02.723Z,8.97
2019-05-05T13:48:33.816Z,6.50
2019-05-05T13:51:04.770Z,11.60
2019-05-05T13:53:34.395Z,7.73
2019-05-05T13:56:11.948Z,9.77
2019-05-05T13:58:35.285Z,5.03
2019-05-05T14:01:04.790Z,10.53
2019-05-05T14:03:34.347Z,6.63
2019-05-05T14:06:04.745Z,7.17
2019-05-05T14:08:36.367Z,7.43
2019-05-05T14:11:05.694Z,7.07
2019-05-05T14:13:35.171Z,7.63
2019-05-05T14:16:04.668Z,4.27
2019-05-05T14:18:34.208Z,6.03
2019-05-05T14:21:03.673Z,5.43
2019-05-05T14:23:37.899Z,7.73
2019-05-05T14:26:07.408Z,7.23
2019-05-05T14:28:36.924Z,5.67
2019-05-05T14:31:17.548Z,6.67
2019-05-05T14:33:57.012Z,8.90
2019-05-05T14:36:57.753Z,9.07
2019-05-05T14:39:27.287Z,9.87
2019-05-05T14:41:56.776Z,10.57
2019-05-05T14:44:26.255Z,11.40
2019-05-05T14:46:55.733Z,7.73
2019-05-05T14:49:25.226Z,9.03
2019-05-05T14:51:54.727Z,10.83
2019-05-05T14:54:24.215Z,8.83
2019-05-05T14:56:54.586Z,11.40
2019-05-05T14:59:25.187Z,10.10
2019-05-05T15:01:54.974Z,10.80
2019-05-05T15:04:26.021Z,34.63
2019-05-05T15:07:06.211Z,9.33
2019-05-05T15:09:41.847Z,9.37
2019-05-05T15:12:23.688Z,10.43
2019-05-05T15:14:54.636Z,7.07
2019-05-05T15:17:24.747Z,11.53
2019-05-05T15:19:54.286Z,11.47
2019-05-05T15:22:24.057Z,8.87
2019-05-05T15:24:53.766Z,9.93
2019-05-05T15:27:24.240Z,11.77
2019-05-05T15:29:54.357Z,10.53
2019-05-05T15:32:24.265Z,8.70
2019-05-05T15:34:54.584Z,10.47
2019-05-05T15:37:24.574Z,10.43
2019-05-05T15:39:54.058Z,11.33
2019-05-05T15:42:23.535Z,6.10
2019-05-05T15:44:54.389Z,8.47
2019-05-05T15:47:25.567Z,7.80
2019-05-05T15:49:55.056Z,10.53
2019-05-05T15:52:24.526Z,8.30
2019-05-05T15:54:54.075Z,7.83
2019-05-05T15:57:24.180Z,7.73
2019-05-05T15:59:54.387Z,5.40
2019-05-05T16:02:24.106Z,7.57
2019-05-05T16:04:54.193Z,10.03
2019-05-05T16:07:24.295Z,5.23
2019-05-05T16:09:53.910Z,5.43
2019-05-05T16:12:33.668Z,8.87
2019-05-05T16:15:08.161Z,8.27
2019-05-05T16:17:44.721Z,5.73
2019-05-05T16:20:18.549Z,6.47
2019-05-05T16:23:03.563Z,6.07
2019-05-05T16:25:33.121Z,6.13
2019-05-05T16:28:05.402Z,11.43
2019-05-05T16:30:33.938Z,7.70
2019-05-05T16:33:04.260Z,5.90
2019-05-05T16:35:34.244Z,6.73
2019-05-05T16:38:06.458Z,6.10
2019-05-05T16:40:35.404Z,6.70
2019-05-05T16:43:04.956Z,6.60
2019-05-05T16:45:34.420Z,5.37
2019-05-05T16:48:04.020Z,6.00
2019-05-05T16:50:34.104Z,7.33
2019-05-05T16:53:05.658Z,6.63
2019-05-05T16:55:48.473Z,6.00
2019-05-05T16:58:18.062Z,7.13
2019-05-05T17:00:47.551Z,9.40
2019-05-05T17:03:17.053Z,9.73
2019-05-05T17:05:46.724Z,7.37
2019-05-05T17:08:16.710Z,6.30
2019-05-05T17:10:46.198Z,6.90
2019-05-05T17:13:24.022Z,8.13
2019-05-05T17:16:13.444Z,7.70
2019-05-05T17:19:00.948Z,10.80
2019-05-05T17:21:58.355Z,12.67
2019-05-05T17:24:27.836Z,11.07
2019-05-05T17:26:57.316Z,9.13
2019-05-05T17:29:26.793Z,7.03
2019-05-05T17:31:56.278Z,8.97
2019-05-05T17:34:25.768Z,11.20
2019-05-05T17:36:55.240Z,8.57
2019-05-05T17:39:26.470Z,6.90
2019-05-05T17:42:17.643Z,8.57
2019-05-05T17:45:00.146Z,7.40
2019-05-05T17:47:48.544Z,6.67
2019-05-05T17:50:24.444Z,6.83
2019-05-05T17:53:23.575Z,8.93
2019-05-05T17:55:53.871Z,8.90
2019-05-05T17:58:24.436Z,8.60
2019-05-05T18:00:57.883Z,9.80
2019-05-05T18:03:27.765Z,9.57
2019-05-05T18:06:20.398Z,7.50
2019-05-05T18:08:53.961Z,7.00
2019-05-05T18:11:29.214Z,7.70
2019-05-05T18:14:03.927Z,8.60
2019-05-05T18:16:33.978Z,8.30
2019-05-05T18:19:04.456Z,9.30
2019-05-05T18:21:34.759Z,8.03
2019-05-05T18:24:04.684Z,8.27
2019-05-05T18:26:34.253Z,7.83
2019-05-05T18:29:03.964Z,7.00
2019-05-05T18:31:33.839Z,7.33
2019-05-05T18:34:04.032Z,5.67
2019-05-05T18:36:33.878Z,9.43
2019-05-05T18:39:05.348Z,9.97
2019-05-05T18:41:44.003Z,14.17
2019-05-05T18:44:18.548Z,10.70
2019-05-05T18:47:06.955Z,7.50
2019-05-05T18:49:36.443Z,6.50
2019-05-05T18:52:05.946Z,7.00
2019-05-05T18:54:35.452Z,5.97
2019-05-05T18:57:05.832Z,8.97
2019-05-05T18:59:35.353Z,8.27
2019-05-05T19:02:14.327Z,8.40
2019-05-05T19:04:53.731Z,7.03
2019-05-05T19:07:27.587Z,9.10
2019-05-05T19:09:57.127Z,10.33
2019-05-05T19:12:26.673Z,10.37
2019-05-05T19:14:56.225Z,7.50
2019-05-05T19:17:28.541Z,10.97
2019-05-05T19:20:00.786Z,10.97
2019-05-05T19:22:30.257Z,10.97
2019-05-05T19:25:15.329Z,10.27
2019-05-05T19:27:45.587Z,7.67
2019-05-05T19:30:15.871Z,6.60
2019-05-05T19:32:45.346Z,5.80
2019-05-05T19:35:14.924Z,7.20
2019-05-05T19:37:44.653Z,5.27
2019-05-05T19:40:14.420Z,7.50
2019-05-05T19:42:45.949Z,7.03
2019-05-05T19:45:16.004Z,6.33
2019-05-05T19:47:45.492Z,7.37
2019-05-05T19:50:34.046Z,7.40
2019-05-05T19:53:04.551Z,6.50
2019-05-05T19:55:36.409Z,4.80
2019-05-05T19:58:06.111Z,8.03
2019-05-05T20:00:38.426Z,7.63
2019-05-05T20:03:07.631Z,4.67
2019-05-05T20:05:37.175Z,6.60
2019-05-05T20:08:06.709Z,7.30
2019-05-05T20:10:36.195Z,5.27
2019-05-05T20:13:05.700Z,7.23
2019-05-05T20:15:41.101Z,8.33
2019-05-05T20:18:10.564Z,6.67
2019-05-05T20:20:40.055Z,6.80
2019-05-05T20:23:09.555Z,12.37
2019-05-05T20:25:39.087Z,8.83
2019-05-05T20:28:08.590Z,10.00
2019-05-05T20:30:38.064Z,9.10
2019-05-05T20:33:13.735Z,9.40
2019-05-05T20:35:47.056Z,4.30
2019-05-05T20:38:23.691Z,6.77
2019-05-05T20:41:14.745Z,9.27
2019-05-05T20:43:44.857Z,10.17
2019-05-05T20:46:14.774Z,9.47
2019-05-05T20:48:44.854Z,9.03
2019-05-05T20:51:14.548Z,7.40
2019-05-05T20:53:44.759Z,9.13
2019-05-05T20:56:15.196Z,10.20
2019-05-05T20:58:44.678Z,9.03
2019-05-05T21:01:14.187Z,9.43
2019-05-05T21:03:43.704Z,12.47
2019-05-05T21:06:13.889Z,10.50
2019-05-05T21:08:44.244Z,8.60
2019-05-05T21:11:14.307Z,7.83
2019-05-05T21:13:45.143Z,11.57
2019-05-05T21:16:14.981Z,12.07
2019-05-05T21:18:44.486Z,9.70
2019-05-05T21:21:19.480Z,10.33
2019-05-05T21:23:54.561Z,13.83
2019-05-05T21:26:43.647Z,14.80
2019-05-05T21:29:14.048Z,9.00
2019-05-05T21:31:43.888Z,9.77
2019-05-05T21:34:14.073Z,10.67
2019-05-05T21:36:44.808Z,12.70
2019-05-05T21:39:14.960Z,9.37
2019-05-05T21:41:44.550Z,12.63
2019-05-05T21:44:14.683Z,7.80
2019-05-05T21:46:44.330Z,10.27
2019-05-05T21:49:13.878Z,8.10
2019-05-05T21:51:56.848Z,9.90
2019-05-05T21:54:48.882Z,10.27
2019-05-05T21:57:34.550Z,10.27
2019-05-05T22:00:07.404Z,11.43
2019-05-05T22:02:36.899Z,8.87
2019-05-05T22:05:06.550Z,8.07
2019-05-05T22:07:36.001Z,14.77
2019-05-05T22:10:05.832Z,9.80
2019-05-05T22:12:36.347Z,10.00
2019-05-05T22:15:06.294Z,10.60
2019-05-05T22:17:36.333Z,9.27
2019-05-05T22:20:15.507Z,15.80
2019-05-05T22:22:45.595Z,12.63
2019-05-05T22:25:15.061Z,12.07
2019-05-05T22:27:44.563Z,13.23
2019-05-05T22:30:14.246Z,12.20
2019-05-05T22:32:44.228Z,8.87
2019-05-05T22:35:16.155Z,9.87
2019-05-05T22:37:45.157Z,14.23
2019-05-05T22:40:24.156Z,9.63
2019-05-05T22:42:54.645Z,6.90
2019-05-05T22:45:23.909Z,7.10
2019-05-05T22:47:54.315Z,11.10
2019-05-05T22:50:24.676Z,6.13
2019-05-05T22:52:54.609Z,11.30
2019-05-05T22:55:24.723Z,7.83
2019-05-05T22:57:54.612Z,13.27
2019-05-05T23:00:29.229Z,6.73
2019-05-05T23:03:04.404Z,9.27
2019-05-05T23:05:39.345Z,9.50
2019-05-05T23:08:08.803Z,11.37
2019-05-05T23:10:38.332Z,8.97
2019-05-05T23:13:07.821Z,11.13
2019-05-05T23:15:39.377Z,9.57
2019-05-05T23:18:17.914Z,11.43
2019-05-05T23:21:15.646Z,12.30
2019-05-05T23:24:04.992Z,12.43
2019-05-05T23:26:36.426Z,8.50
2019-05-05T23:29:05.912Z,17.20
2019-05-05T23:31:35.393Z,11.80
2019-05-05T23:34:04.871Z,12.27
2019-05-05T23:36:34.425Z,8.83
2019-05-05T23:39:06.615Z,8.27
2019-05-05T23:41:36.894Z,8.43
2019-05-05T23:44:06.807Z,11.03
2019-05-05T23:46:36.305Z,13.67
2019-05-05T23:49:05.804Z,8.97
2019-05-05T23:51:35.278Z,9.13
2019-05-05T23:54:04.766Z,12.27
2019-05-05T23:56:35.055Z,11.20
2019-05-05T23:59:04.803Z,12.00
